Flugmeteorologie

METAR


Letzte Änderung: 09 Dec 2022 22:50:00
666
SAHU41 HASM 092300
METAR LHSM 092245Z AUTO 33005KT 3400 -SHRA BR BKN003 06/06 Q1000

TAF


Letzte Änderung: 09 Dec 2022 20:25:00
654
FCHU99 LHSM 092000
TAF LHSM 092000Z NIL